Time;durP1;ratioP1;P1;durP2;ratioP2;P2;SDS_P1;SDS_P2;PMS_P1;PMS_P2;Temp;Humidity;BMP_temperature;BMP_pressure;BME280_temperature;BME280_humidity;BME280_pressure;Samples;Min_cycle;Max_cycle;Signal;HPM_P1;HPM_P2
2023/10/24 00:01:46;;;;;;;6.37;4.00;;;13.80;99.90;;;;;;5073034;28;21008;-58
2023/10/24 00:04:13;;;;;;;4.93;4.27;;;13.80;99.90;;;;;;5072984;28;20950;-58
2023/10/24 00:06:40;;;;;;;5.10;4.47;;;13.80;99.90;;;;;;5073495;28;20487;-58
2023/10/24 00:09:07;;;;;;;5.30;4.67;;;13.90;99.90;;;;;;5073497;28;20436;-58
2023/10/24 00:11:34;;;;;;;5.10;4.60;;;13.80;99.90;;;;;;5073408;28;20522;-58
2023/10/24 00:14:01;;;;;;;4.30;3.87;;;13.80;99.90;;;;;;5073430;28;20990;-58
2023/10/24 00:16:29;;;;;;;5.57;4.87;;;13.80;99.90;;;;;;5073434;28;20451;-58
2023/10/24 00:18:55;;;;;;;5.83;4.30;;;13.80;99.90;;;;;;5073384;28;20445;-58
2023/10/24 00:21:22;;;;;;;7.90;4.20;;;13.90;99.90;;;;;;5073314;28;20464;-58
2023/10/24 00:23:48;;;;;;;5.70;4.50;;;13.90;99.90;;;;;;5074083;28;20507;-58
2023/10/24 00:26:15;;;;;;;6.07;3.93;;;13.90;99.90;;;;;;5073259;28;20468;-58
2023/10/24 00:28:42;;;;;;;6.93;4.00;;;14.00;99.90;;;;;;5073325;28;20452;-59
2023/10/24 00:31:09;;;;;;;4.50;3.57;;;14.10;99.90;;;;;;5073126;28;20535;-59
2023/10/24 00:33:37;;;;;;;5.87;3.80;;;14.10;99.90;;;;;;5073156;28;20807;-58
2023/10/24 00:36:04;;;;;;;5.57;3.80;;;14.10;99.90;;;;;;5073202;28;20448;-58
2023/10/24 00:38:31;;;;;;;5.27;3.50;;;14.10;99.90;;;;;;5073181;28;20444;-58
2023/10/24 00:40:58;;;;;;;6.33;3.60;;;14.10;99.90;;;;;;5073073;28;20465;-58
2023/10/24 00:43:24;;;;;;;5.80;3.67;;;14.10;99.90;;;;;;5072686;28;20472;-58
2023/10/24 00:45:51;;;;;;;6.13;3.73;;;14.10;99.90;;;;;;5073119;28;20444;-58
2023/10/24 00:48:19;;;;;;;3.40;3.10;;;14.20;99.90;;;;;;5073122;28;20444;-58
2023/10/24 00:50:47;;;;;;;3.50;2.90;;;14.20;99.90;;;;;;5072979;28;20547;-58
2023/10/24 00:53:14;;;;;;;6.53;4.00;;;14.20;99.90;;;;;;5072971;28;20444;-58
2023/10/24 00:55:41;;;;;;;4.80;3.40;;;14.20;99.90;;;;;;5076190;28;20938;-58
2023/10/24 00:58:09;;;;;;;5.33;2.70;;;14.20;99.90;;;;;;5076659;28;20444;-58
2023/10/24 01:00:36;;;;;;;6.17;3.13;;;14.20;99.90;;;;;;5076599;28;20989;-59
2023/10/24 01:03:05;;;;;;;3.50;2.60;;;14.20;99.90;;;;;;5076522;28;20476;-59
2023/10/24 01:05:32;;;;;;;7.93;3.23;;;14.20;99.90;;;;;;5076817;28;20440;-58
2023/10/24 01:08:00;;;;;;;4.60;3.13;;;14.20;99.90;;;;;;5076508;28;20975;-58
2023/10/24 01:10:27;;;;;;;4.80;3.20;;;14.30;99.90;;;;;;5076664;28;20473;-58
2023/10/24 01:12:54;;;;;;;6.53;3.03;;;14.30;99.90;;;;;;5076594;28;20474;-58
2023/10/24 01:15:21;;;;;;;3.63;2.90;;;14.20;99.90;;;;;;5076306;28;20934;-58
2023/10/24 01:17:49;;;;;;;8.50;2.83;;;14.20;99.90;;;;;;5076810;28;20452;-58
2023/10/24 01:20:16;;;;;;;5.57;2.60;;;14.20;99.90;;;;;;5076428;28;20479;-58
2023/10/24 01:22:44;;;;;;;4.57;2.80;;;14.20;99.90;;;;;;5076463;28;20480;-58
2023/10/24 01:25:14;;;;;;;5.67;2.87;;;14.30;99.90;;;;;;5076678;28;20436;-58
2023/10/24 01:27:43;;;;;;;5.63;3.67;;;14.40;99.90;;;;;;5076407;28;20449;-58
2023/10/24 01:30:11;;;;;;;5.97;2.50;;;14.40;99.90;;;;;;5076314;28;20474;-58
2023/10/24 01:32:37;;;;;;;5.17;2.93;;;14.50;99.90;;;;;;5076449;28;20449;-58
2023/10/24 01:35:05;;;;;;;4.13;2.00;;;14.50;99.90;;;;;;5076596;28;20440;-58
2023/10/24 01:37:32;;;;;;;5.43;2.53;;;14.50;99.90;;;;;;5076161;28;20440;-58
2023/10/24 01:40:00;;;;;;;6.73;3.03;;;14.50;99.90;;;;;;5076209;28;20440;-59
2023/10/24 01:42:27;;;;;;;6.57;2.40;;;14.60;99.90;;;;;;5075952;28;20480;-58
2023/10/24 01:44:53;;;;;;;8.73;2.67;;;14.60;99.90;;;;;;5076078;28;20449;-58
2023/10/24 01:47:20;;;;;;;6.63;2.80;;;14.60;99.90;;;;;;5076040;28;20452;-58
2023/10/24 01:49:47;;;;;;;7.27;2.30;;;14.60;99.90;;;;;;5076163;28;20444;-59
2023/10/24 01:52:13;;;;;;;4.40;2.83;;;14.60;99.90;;;;;;5075704;28;20990;-59
2023/10/24 01:54:40;;;;;;;7.20;2.37;;;14.60;99.90;;;;;;5075644;28;20934;-58
2023/10/24 01:57:08;;;;;;;5.83;2.33;;;14.60;99.90;;;;;;5075860;28;20464;-59
2023/10/24 01:59:35;;;;;;;4.90;1.60;;;14.60;99.90;;;;;;5075860;28;20460;-58
2023/10/24 02:02:02;;;;;;;3.97;1.97;;;14.60;99.90;;;;;;5075712;28;20464;-58
2023/10/24 02:04:28;;;;;;;4.67;1.77;;;14.60;99.90;;;;;;5075394;28;20493;-58
2023/10/24 02:06:55;;;;;;;4.73;2.07;;;14.60;99.90;;;;;;5074727;28;20459;-58
2023/10/24 02:09:22;;;;;;;3.93;1.90;;;14.70;99.90;;;;;;5075714;28;20451;-58
2023/10/24 02:11:48;;;;;;;6.23;1.70;;;14.70;99.90;;;;;;5075784;28;20468;-58
2023/10/24 02:14:16;;;;;;;4.87;2.30;;;14.70;99.90;;;;;;5075925;28;20437;-58
2023/10/24 02:16:43;;;;;;;4.53;1.70;;;14.70;99.90;;;;;;5075537;28;20437;-58
2023/10/24 02:19:10;;;;;;;4.60;1.83;;;14.70;99.90;;;;;;5075572;28;20436;-58
2023/10/24 02:21:36;;;;;;;3.33;1.37;;;14.60;99.90;;;;;;5075530;28;20460;-58
2023/10/24 02:24:03;;;;;;;4.53;1.70;;;14.60;99.90;;;;;;5075109;28;20480;-58
2023/10/24 02:26:30;;;;;;;2.07;1.20;;;14.70;99.90;;;;;;5075447;28;20450;-58
2023/10/24 02:28:58;;;;;;;3.80;1.50;;;14.70;99.90;;;;;;5075188;28;20808;-58
2023/10/24 02:31:26;;;;;;;4.33;1.50;;;14.70;99.90;;;;;;5075205;28;20465;-58
2023/10/24 02:33:53;;;;;;;3.53;1.60;;;14.70;99.90;;;;;;5075260;28;20441;-58
2023/10/24 02:36:19;;;;;;;3.83;2.10;;;14.70;99.90;;;;;;5074870;28;20448;-58
2023/10/24 02:38:46;;;;;;;4.20;1.47;;;14.70;99.90;;;;;;5075204;28;20441;-58
2023/10/24 02:41:13;;;;;;;1.33;1.13;;;14.70;99.90;;;;;;5074996;28;20465;-58
2023/10/24 02:43:40;;;;;;;4.17;1.50;;;14.70;99.90;;;;;;5074835;28;20476;-58
2023/10/24 02:46:07;;;;;;;2.57;1.60;;;14.70;99.90;;;;;;5074744;28;20812;-58
2023/10/24 02:48:35;;;;;;;2.53;1.40;;;14.70;99.90;;;;;;5074959;28;20787;-58
2023/10/24 02:51:02;;;;;;;2.80;1.73;;;14.70;99.90;;;;;;5074801;28;20465;-58
2023/10/24 02:53:30;;;;;;;2.80;1.57;;;14.70;99.90;;;;;;5074487;28;21014;-58
2023/10/24 02:56:02;;;;;;;4.30;1.63;;;14.70;99.90;;;;;;5074754;28;20481;-58
2023/10/24 02:58:29;;;;;;;3.80;1.47;;;14.70;99.90;;;;;;5074865;28;20460;-58
2023/10/24 03:00:56;;;;;;;1.90;1.40;;;14.70;99.90;;;;;;5074852;28;20476;-58
2023/10/24 03:03:22;;;;;;;6.17;2.40;;;14.70;99.90;;;;;;5074177;28;20484;-58
2023/10/24 03:05:50;;;;;;;4.80;1.10;;;14.70;99.90;;;;;;5074306;28;20452;-58
2023/10/24 03:08:17;;;;;;;4.67;1.50;;;14.70;99.90;;;;;;5074150;28;20445;-58
2023/10/24 03:10:44;;;;;;;1.60;1.50;;;14.70;99.90;;;;;;5074090;28;20492;-58
2023/10/24 03:13:10;;;;;;;2.37;1.40;;;14.70;99.90;;;;;;5074143;28;20947;-58
2023/10/24 03:15:39;;;;;;;2.87;1.47;;;14.70;99.90;;;;;;5074300;28;20501;-58
2023/10/24 03:18:06;;;;;;;3.03;1.27;;;14.70;99.90;;;;;;5074395;28;20451;-58
2023/10/24 03:20:32;;;;;;;3.30;1.20;;;14.60;99.90;;;;;;5074182;28;20461;-58
2023/10/24 03:23:00;;;;;;;4.43;1.10;;;14.60;99.90;;;;;;5074090;28;20480;-59
2023/10/24 03:25:27;;;;;;;0.80;0.80;;;14.60;99.90;;;;;;5074226;28;20448;-59
2023/10/24 03:27:54;;;;;;;1.47;0.63;;;14.50;99.90;;;;;;5074068;28;20494;-58
2023/10/24 03:30:21;;;;;;;2.07;1.83;;;14.50;99.90;;;;;;5074205;28;20465;-58
2023/10/24 03:32:48;;;;;;;1.27;0.77;;;14.40;99.90;;;;;;5073996;28;20441;-58
2023/10/24 03:35:15;;;;;;;0.70;0.60;;;14.30;99.90;;;;;;5074009;28;20451;-58
2023/10/24 03:37:42;;;;;;;4.10;1.17;;;14.30;99.90;;;;;;5073976;28;20455;-58
2023/10/24 03:40:11;;;;;;;1.00;0.80;;;14.30;99.90;;;;;;5073422;28;20829;-58
2023/10/24 03:42:38;;;;;;;2.55;1.00;;;14.20;99.90;;;;;;5073480;28;20445;-58
2023/10/24 03:45:05;;;;;;;1.83;1.10;;;14.20;99.90;;;;;;5073758;28;20897;-58
2023/10/24 03:47:32;;;;;;;2.50;0.70;;;14.20;99.90;;;;;;5074575;28;20445;-58
2023/10/24 03:49:59;;;;;;;1.00;0.63;;;14.20;99.90;;;;;;5073973;28;20445;-58
2023/10/24 03:52:25;;;;;;;1.37;0.67;;;14.20;99.90;;;;;;5073653;28;20468;-58
2023/10/24 03:54:52;;;;;;;0.77;0.77;;;14.20;99.90;;;;;;5074487;28;20449;-58
2023/10/24 03:57:20;;;;;;;1.20;0.80;;;14.20;99.90;;;;;;5073687;28;20448;-58
2023/10/24 03:59:47;;;;;;;1.83;0.80;;;14.20;99.90;;;;;;5073867;28;20436;-59
2023/10/24 04:02:13;;;;;;;1.17;0.60;;;14.20;99.90;;;;;;5073204;28;20993;-58
2023/10/24 04:04:40;;;;;;;1.10;0.80;;;14.30;99.90;;;;;;5073350;28;20882;-58
2023/10/24 04:07:06;;;;;;;1.60;0.77;;;14.30;99.90;;;;;;5073238;28;20813;-58
2023/10/24 04:09:34;;;;;;;0.97;0.87;;;14.30;99.90;;;;;;5073485;28;20888;-58
2023/10/24 04:12:00;;;;;;;1.70;1.07;;;14.30;99.90;;;;;;5073368;28;20925;-58
2023/10/24 04:14:28;;;;;;;1.87;0.80;;;14.30;99.90;;;;;;5073385;28;20463;-58
2023/10/24 04:16:55;;;;;;;2.33;0.73;;;14.30;99.90;;;;;;5073466;28;20467;-58
2023/10/24 04:19:22;;;;;;;1.63;0.73;;;14.40;99.90;;;;;;5073454;28;20494;-58
2023/10/24 04:21:49;;;;;;;1.47;0.90;;;14.40;99.90;;;;;;5073374;28;20469;-58
2023/10/24 04:24:15;;;;;;;1.47;1.20;;;14.40;99.90;;;;;;5073261;28;20495;-59
2023/10/24 04:26:42;;;;;;;1.53;0.77;;;14.40;99.90;;;;;;5073334;28;20455;-58
2023/10/24 04:29:09;;;;;;;1.00;0.80;;;14.40;99.90;;;;;;5072776;28;20448;-58
2023/10/24 04:31:37;;;;;;;4.73;1.27;;;14.40;99.90;;;;;;5072836;28;20467;-58
2023/10/24 04:34:05;;;;;;;1.17;1.07;;;14.40;99.90;;;;;;5073262;28;20467;-58
2023/10/24 04:36:32;;;;;;;1.60;1.17;;;14.30;99.90;;;;;;5073227;28;20488;-58
2023/10/24 04:38:59;;;;;;;3.63;1.20;;;14.30;99.90;;;;;;5073456;28;20445;-58
2023/10/24 04:41:26;;;;;;;2.03;1.10;;;14.20;99.90;;;;;;5073212;28;20475;-58
2023/10/24 04:43:53;;;;;;;4.23;1.30;;;14.20;99.90;;;;;;5073098;28;20476;-58
2023/10/24 04:46:20;;;;;;;2.10;1.00;;;14.10;99.90;;;;;;5073117;28;20795;-58
2023/10/24 04:48:48;;;;;;;1.87;1.23;;;14.20;99.90;;;;;;5073131;28;20870;-58
2023/10/24 04:51:14;;;;;;;2.30;1.40;;;14.20;99.90;;;;;;5072670;28;20845;-58
2023/10/24 04:53:41;;;;;;;2.03;1.70;;;14.10;99.90;;;;;;5073051;28;20444;-58
2023/10/24 04:56:08;;;;;;;2.67;1.73;;;14.10;99.90;;;;;;5073009;28;20452;-58
2023/10/24 04:58:35;;;;;;;2.10;1.97;;;14.10;99.90;;;;;;5073038;28;20448;-58
2023/10/24 05:01:01;;;;;;;1.63;1.53;;;14.10;99.20;;;;;;5073146;28;20555;-58
2023/10/24 05:03:28;;;;;;;3.20;2.17;;;14.00;99.10;;;;;;5072700;28;20484;-58
2023/10/24 05:05:56;;;;;;;1.73;1.63;;;14.10;99.40;;;;;;5072672;28;20958;-58
2023/10/24 05:08:23;;;;;;;1.53;1.43;;;14.00;99.50;;;;;;5072939;28;20449;-58
2023/10/24 05:10:50;;;;;;;3.80;2.13;;;14.10;99.50;;;;;;5072473;28;20471;-58
2023/10/24 05:13:17;;;;;;;3.00;1.70;;;14.10;99.60;;;;;;5072764;28;20488;-58
2023/10/24 05:15:45;;;;;;;2.37;2.00;;;14.10;99.80;;;;;;5072872;28;20436;-59
2023/10/24 05:18:11;;;;;;;3.13;1.80;;;14.10;99.90;;;;;;5072870;28;20448;-58
2023/10/24 05:20:39;;;;;;;2.10;1.90;;;14.20;99.90;;;;;;5072695;28;20464;-58
2023/10/24 05:23:07;;;;;;;2.77;1.50;;;14.10;99.90;;;;;;5072870;28;20472;-59
2023/10/24 05:25:34;;;;;;;3.57;2.03;;;14.20;99.90;;;;;;5072666;28;20484;-58
2023/10/24 05:28:00;;;;;;;2.33;1.67;;;14.20;99.90;;;;;;5072714;28;20473;-58
2023/10/24 05:30:27;;;;;;;3.20;1.60;;;14.20;99.90;;;;;;5072755;28;20472;-59
2023/10/24 05:32:54;;;;;;;2.83;1.67;;;14.20;99.90;;;;;;5072793;28;20452;-58
2023/10/24 05:35:21;;;;;;;2.13;1.70;;;14.20;99.90;;;;;;5072759;28;20436;-58
2023/10/24 05:37:48;;;;;;;1.60;1.30;;;14.20;99.90;;;;;;5072779;28;20444;-58
2023/10/24 05:40:16;;;;;;;2.20;1.60;;;14.20;99.70;;;;;;5072592;28;20448;-58
2023/10/24 05:42:44;;;;;;;2.50;1.40;;;14.20;99.70;;;;;;5075772;28;20436;-58
2023/10/24 05:45:11;;;;;;;4.07;1.27;;;14.20;99.50;;;;;;5076131;28;20480;-58
2023/10/24 05:47:37;;;;;;;1.60;1.50;;;14.20;99.50;;;;;;5076095;28;20447;-58
2023/10/24 05:50:05;;;;;;;3.83;1.80;;;14.20;99.60;;;;;;5076074;28;20461;-58
2023/10/24 05:52:32;;;;;;;1.40;1.30;;;14.30;99.60;;;;;;5076016;28;20448;-59
2023/10/24 05:54:59;;;;;;;1.70;1.60;;;14.30;99.50;;;;;;5075944;28;20476;-58
2023/10/24 05:57:29;;;;;;;1.97;1.77;;;14.30;99.50;;;;;;5076019;28;20441;-58
2023/10/24 05:59:56;;;;;;;1.57;1.20;;;14.20;99.30;;;;;;5076038;28;20440;-58
2023/10/24 06:02:22;;;;;;;2.53;1.47;;;14.20;99.20;;;;;;5075556;28;20983;-58
2023/10/24 06:04:49;;;;;;;1.70;1.27;;;14.20;99.30;;;;;;5075274;28;20488;-58
2023/10/24 06:07:16;;;;;;;3.07;1.30;;;14.20;99.30;;;;;;5076051;28;20444;-58
2023/10/24 06:09:43;;;;;;;2.83;1.20;;;14.20;99.20;;;;;;5075712;28;20498;-58
2023/10/24 06:12:09;;;;;;;4.33;1.27;;;14.20;99.30;;;;;;5075621;28;20468;-58
2023/10/24 06:14:37;;;;;;;7.13;1.63;;;14.20;99.30;;;;;;5076100;28;20452;-58
2023/10/24 06:17:04;;;;;;;3.30;1.57;;;14.20;99.40;;;;;;5075257;28;20814;-58
2023/10/24 06:19:33;;;;;;;2.27;1.50;;;14.20;99.50;;;;;;5075787;28;20444;-58
2023/10/24 06:21:59;;;;;;;2.90;1.50;;;14.20;99.40;;;;;;5075059;28;20564;-58
2023/10/24 06:24:26;;;;;;;7.40;1.60;;;14.20;99.10;;;;;;5075045;28;21051;-58
2023/10/24 06:26:53;;;;;;;17.57;2.37;;;14.20;99.20;;;;;;5075325;28;20445;-58
2023/10/24 06:29:19;;;;;;;2.23;1.60;;;14.20;99.30;;;;;;5075298;28;20445;-58
2023/10/24 06:31:47;;;;;;;3.53;1.40;;;14.20;99.30;;;;;;5075194;28;20457;-58
2023/10/24 06:34:14;;;;;;;2.60;1.47;;;14.20;99.30;;;;;;5075296;28;20440;-58
2023/10/24 06:36:41;;;;;;;1.93;1.20;;;14.30;99.20;;;;;;5075188;28;20451;-58
2023/10/24 06:39:07;;;;;;;5.30;1.10;;;14.20;99.00;;;;;;5075093;28;20552;-58
2023/10/24 06:41:34;;;;;;;2.53;1.17;;;14.30;99.10;;;;;;5074718;28;20813;-58
2023/10/24 06:44:01;;;;;;;3.67;1.50;;;14.20;99.10;;;;;;5074970;28;20846;-58
2023/10/24 06:46:27;;;;;;;2.83;1.10;;;14.30;99.10;;;;;;5074761;28;20962;-58
2023/10/24 06:48:55;;;;;;;1.67;1.00;;;14.30;99.10;;;;;;5074941;28;20441;-58
2023/10/24 06:51:23;;;;;;;2.43;1.37;;;14.30;99.10;;;;;;5074618;28;20464;-58
2023/10/24 06:53:50;;;;;;;4.27;1.10;;;14.30;99.00;;;;;;5074619;28;20449;-58
2023/10/24 06:56:17;;;;;;;3.23;1.60;;;14.30;98.90;;;;;;5074740;28;20444;-58
2023/10/24 06:58:44;;;;;;;3.17;1.57;;;14.30;98.90;;;;;;5074832;28;20445;-58
2023/10/24 07:01:10;;;;;;;1.43;0.90;;;14.40;98.90;;;;;;5074684;28;20461;-58
2023/10/24 07:03:37;;;;;;;1.73;1.00;;;14.40;98.60;;;;;;5074382;28;20456;-58
2023/10/24 07:06:06;;;;;;;1.53;1.10;;;14.40;98.60;;;;;;5074539;28;20488;-58
2023/10/24 07:08:32;;;;;;;3.60;1.30;;;14.40;98.50;;;;;;5074612;28;20440;-58
2023/10/24 07:10:59;;;;;;;2.80;1.10;;;14.40;98.40;;;;;;5074401;28;20461;-58
2023/10/24 07:13:25;;;;;;;1.93;1.03;;;14.40;98.30;;;;;;5074460;28;20447;-58
2023/10/24 07:15:52;;;;;;;1.90;1.10;;;14.40;98.30;;;;;;5074392;28;20444;-58
2023/10/24 07:18:19;;;;;;;2.10;1.10;;;14.40;97.90;;;;;;5074096;28;20947;-59
2023/10/24 07:20:45;;;;;;;3.33;0.90;;;14.40;97.80;;;;;;5073985;28;20472;-58
2023/10/24 07:23:14;;;;;;;0.87;0.80;;;14.50;97.80;;;;;;5074329;28;20953;-59
2023/10/24 07:25:41;;;;;;;2.13;1.00;;;14.40;97.90;;;;;;5074190;28;20510;-59
2023/10/24 07:28:08;;;;;;;4.10;1.50;;;14.50;97.70;;;;;;5075025;28;20794;-58
2023/10/24 07:30:34;;;;;;;2.63;1.43;;;14.50;97.50;;;;;;5074044;28;20464;-58
2023/10/24 07:33:01;;;;;;;2.53;1.27;;;14.50;97.60;;;;;;5074111;28;20494;-58
2023/10/24 07:35:28;;;;;;;2.10;0.90;;;14.50;97.60;;;;;;5074043;28;20437;-58
2023/10/24 07:37:54;;;;;;;4.23;1.23;;;14.50;97.60;;;;;;5073739;28;20456;-58
2023/10/24 07:40:22;;;;;;;3.93;1.27;;;14.50;97.40;;;;;;5073618;28;20935;-58
2023/10/24 07:42:49;;;;;;;5.50;1.30;;;14.50;97.20;;;;;;5073877;28;20449;-58
2023/10/24 07:45:16;;;;;;;3.30;1.00;;;14.50;97.00;;;;;;5073718;28;20851;-58
2023/10/24 07:47:43;;;;;;;2.20;1.10;;;14.50;97.20;;;;;;5073472;28;20950;-58
2023/10/24 07:50:10;;;;;;;3.70;1.00;;;14.50;97.10;;;;;;5073425;28;20942;-58
2023/10/24 07:52:37;;;;;;;4.43;1.00;;;14.50;97.20;;;;;;5073385;28;20445;-58
2023/10/24 07:55:04;;;;;;;2.90;1.03;;;14.50;97.20;;;;;;5073714;28;20441;-58
2023/10/24 07:57:32;;;;;;;3.10;1.10;;;14.50;97.30;;;;;;5073643;28;20440;-58
2023/10/24 07:59:59;;;;;;;1.70;0.80;;;14.50;97.30;;;;;;5073324;28;20961;-59
2023/10/24 08:02:26;;;;;;;1.23;1.13;;;14.50;97.30;;;;;;5073251;28;20975;-58
2023/10/24 08:04:52;;;;;;;1.50;0.80;;;14.50;97.30;;;;;;5072407;28;20481;-58
2023/10/24 08:07:19;;;;;;;1.93;1.00;;;14.60;97.40;;;;;;5073170;28;20445;-58
2023/10/24 08:09:46;;;;;;;1.77;0.97;;;14.60;97.20;;;;;;5073562;28;20845;-58
2023/10/24 08:12:12;;;;;;;1.50;1.40;;;14.60;97.20;;;;;;5073392;28;20471;-59
2023/10/24 08:14:40;;;;;;;2.00;1.20;;;14.60;97.00;;;;;;5073092;28;20930;-59
2023/10/24 08:17:07;;;;;;;1.63;1.10;;;14.60;96.90;;;;;;5073446;28;20444;-59
2023/10/24 08:19:34;;;;;;;2.63;0.80;;;14.60;96.70;;;;;;5073036;28;20826;-59
2023/10/24 08:22:01;;;;;;;0.70;0.70;;;14.60;96.70;;;;;;5072985;28;20814;-59
2023/10/24 08:24:29;;;;;;;2.50;1.50;;;14.70;96.90;;;;;;5073285;28;20837;-58
2023/10/24 08:26:55;;;;;;;3.37;1.27;;;14.70;96.70;;;;;;5073341;28;20448;-59
2023/10/24 08:29:22;;;;;;;2.00;1.20;;;14.80;96.70;;;;;;5073246;28;20440;-59
2023/10/24 08:31:50;;;;;;;2.00;1.13;;;14.80;96.50;;;;;;5072841;28;20471;-59
2023/10/24 08:34:17;;;;;;;1.83;1.20;;;14.90;96.60;;;;;;5073255;28;20475;-58
2023/10/24 08:36:43;;;;;;;5.67;1.00;;;14.90;96.30;;;;;;5072958;28;20460;-58
2023/10/24 08:39:10;;;;;;;1.90;1.17;;;15.00;96.30;;;;;;5073200;28;20440;-58
2023/10/24 08:41:37;;;;;;;1.53;1.00;;;14.90;96.00;;;;;;5073117;28;20841;-58
2023/10/24 08:44:05;;;;;;;1.93;1.07;;;15.00;96.10;;;;;;5072822;28;20962;-59
2023/10/24 08:46:32;;;;;;;2.10;1.43;;;15.00;96.20;;;;;;5073067;28;20530;-58
2023/10/24 08:49:03;;;;;;;4.33;1.53;;;15.00;96.10;;;;;;5072942;28;20444;-58
2023/10/24 08:51:30;;;;;;;2.17;1.43;;;15.20;96.30;;;;;;5073347;28;20469;-58
2023/10/24 08:53:56;;;;;;;3.07;1.67;;;15.20;95.90;;;;;;5073115;28;20494;-59
2023/10/24 08:56:24;;;;;;;3.70;1.50;;;15.40;95.90;;;;;;5072769;28;20790;-59
2023/10/24 08:58:52;;;;;;;1.87;1.20;;;15.50;95.70;;;;;;5073291;28;20444;-58
2023/10/24 09:01:20;;;;;;;2.70;1.40;;;15.60;95.40;;;;;;5072946;28;20465;-58
2023/10/24 09:03:46;;;;;;;1.83;1.10;;;15.70;95.40;;;;;;5072721;28;20456;-58
2023/10/24 09:06:15;;;;;;;2.47;1.30;;;15.90;95.20;;;;;;5072882;28;20489;-58
2023/10/24 09:08:41;;;;;;;3.77;1.20;;;16.00;94.70;;;;;;5072991;28;20822;-58
2023/10/24 09:11:08;;;;;;;4.40;1.37;;;16.00;94.30;;;;;;5072826;28;20835;-58
2023/10/24 09:13:35;;;;;;;4.50;1.20;;;16.00;93.90;;;;;;5072500;28;21008;-59
2023/10/24 09:16:09;;;;;;;3.63;1.20;;;16.20;94.00;;;;;;5075174;28;20448;-58
2023/10/24 09:18:37;;;;;;;4.53;0.93;;;16.30;93.80;;;;;;5076833;28;20848;-58
2023/10/24 09:21:06;;;;;;;1.30;0.90;;;16.30;93.50;;;;;;5076384;28;20463;-58
2023/10/24 09:23:35;;;;;;;1.53;1.33;;;16.40;93.20;;;;;;5076805;28;20440;-58
2023/10/24 09:26:03;;;;;;;2.27;1.37;;;16.30;93.10;;;;;;5076430;28;20487;-58
2023/10/24 09:28:30;;;;;;;1.20;1.10;;;16.40;93.20;;;;;;5076544;28;20514;-58
2023/10/24 09:30:58;;;;;;;2.17;1.30;;;16.40;93.10;;;;;;5076025;28;20464;-58
2023/10/24 09:33:26;;;;;;;2.93;1.00;;;16.40;93.00;;;;;;5076361;28;20476;-58
2023/10/24 09:35:53;;;;;;;3.13;1.23;;;16.40;93.00;;;;;;5076259;28;20479;-58
2023/10/24 09:38:21;;;;;;;4.23;1.10;;;16.50;93.20;;;;;;5076244;28;20992;-58
2023/10/24 09:40:49;;;;;;;3.73;1.50;;;16.50;93.10;;;;;;5076124;28;20499;-58
2023/10/24 09:43:21;;;;;;;1.57;0.80;;;16.50;93.00;;;;;;5076207;28;20479;-59
2023/10/24 09:45:50;;;;;;;2.30;1.27;;;16.60;92.90;;;;;;5076053;28;20564;-58
2023/10/24 09:48:17;;;;;;;1.80;1.17;;;16.70;92.90;;;;;;5076093;28;20463;-58
2023/10/24 09:50:44;;;;;;;3.57;1.20;;;16.80;92.40;;;;;;5076017;28;20472;-58
2023/10/24 09:53:12;;;;;;;1.57;1.10;;;16.90;92.10;;;;;;5076039;28;20437;-59
2023/10/24 09:55:41;;;;;;;2.50;1.10;;;16.90;91.80;;;;;;5075917;28;20444;-58
2023/10/24 09:58:10;;;;;;;3.37;1.00;;;16.90;91.70;;;;;;5075934;28;20465;-58
2023/10/24 10:00:37;;;;;;;2.40;0.87;;;17.00;91.70;;;;;;5075837;28;20485;-58
2023/10/24 10:03:04;;;;;;;2.27;1.60;;;17.10;91.40;;;;;;5075643;28;20456;-58
2023/10/24 10:05:32;;;;;;;1.13;1.03;;;17.10;91.30;;;;;;5075781;28;20469;-58
2023/10/24 10:08:02;;;;;;;2.30;0.93;;;17.20;91.40;;;;;;5075545;28;20762;-58
2023/10/24 10:10:30;;;;;;;1.03;0.93;;;17.40;91.40;;;;;;5075824;28;20486;-58
2023/10/24 10:13:00;;;;;;;4.83;1.03;;;17.60;91.10;;;;;;5075488;28;20459;-58
2023/10/24 10:15:48;;;;;;;3.20;1.03;;;17.70;90.50;;;;;;5075742;28;20429;-58
2023/10/24 10:18:26;;;;;;;4.20;0.90;;;18.00;90.10;;;;;;5075331;28;20455;-58
2023/10/24 10:21:03;;;;;;;0.83;0.80;;;18.20;89.50;;;;;;5075479;28;20467;-58
2023/10/24 10:23:52;;;;;;;2.37;1.70;;;18.30;88.60;;;;;;5075490;28;20428;-58
2023/10/24 10:26:23;;;;;;;1.27;1.10;;;18.40;88.00;;;;;;5074956;28;20495;-58
2023/10/24 10:29:07;;;;;;;2.87;1.00;;;18.40;86.40;;;;;;5075173;28;20438;-58
2023/10/24 10:31:47;;;;;;;1.90;0.90;;;18.20;86.50;;;;;;5074937;28;20970;-58
2023/10/24 10:34:14;;;;;;;1.20;1.00;;;18.00;86.80;;;;;;5075294;28;20425;-58
2023/10/24 10:36:54;;;;;;;2.10;1.07;;;17.90;87.00;;;;;;5075190;28;20444;-58
2023/10/24 10:39:20;;;;;;;1.23;0.90;;;17.80;87.90;;;;;;5075246;28;20455;-58
2023/10/24 10:41:47;;;;;;;2.30;0.93;;;17.70;88.30;;;;;;5074759;28;20464;-58
2023/10/24 10:44:44;;;;;;;4.03;1.07;;;17.50;89.10;;;;;;5075143;28;20440;-58
2023/10/24 10:47:15;;;;;;;1.30;0.70;;;17.30;90.00;;;;;;5012869;28;20880;-58
2023/10/24 10:49:49;;;;;;;2.43;1.10;;;17.20;90.40;;;;;;5061955;28;20503;-58
2023/10/24 10:52:46;;;;;;;2.30;1.17;;;17.10;90.70;;;;;;5074570;28;20974;-58
2023/10/24 10:55:29;;;;;;;2.83;1.43;;;17.10;91.10;;;;;;5040301;28;20451;-59
2023/10/24 10:58:05;;;;;;;1.80;1.20;;;17.20;90.90;;;;;;5074503;28;20903;-58
2023/10/24 11:00:43;;;;;;;2.87;1.47;;;17.20;91.00;;;;;;5074693;28;20547;-58
2023/10/24 11:03:29;;;;;;;1.10;0.90;;;17.20;91.10;;;;;;5074904;28;20451;-59
2023/10/24 11:05:56;;;;;;;3.60;1.13;;;17.10;91.10;;;;;;5074219;28;20835;-58
2023/10/24 11:08:24;;;;;;;1.07;1.00;;;17.10;91.30;;;;;;5074563;28;20445;-58
2023/10/24 11:10:59;;;;;;;1.60;1.00;;;17.00;91.60;;;;;;5074988;28;20473;-59
2023/10/24 11:13:36;;;;;;;1.23;0.80;;;17.00;91.70;;;;;;5074407;28;20455;-58
2023/10/24 11:16:05;;;;;;;2.10;1.07;;;16.90;91.30;;;;;;5074412;28;20478;-58
2023/10/24 11:18:34;;;;;;;1.80;0.90;;;16.80;91.10;;;;;;5074363;28;20440;-59
2023/10/24 11:21:03;;;;;;;0.80;0.80;;;16.80;91.20;;;;;;5073890;28;20982;-58
2023/10/24 11:23:30;;;;;;;2.00;1.30;;;16.70;91.50;;;;;;5074226;28;20464;-58
2023/10/24 11:25:58;;;;;;;2.97;1.10;;;16.70;91.70;;;;;;5073894;28;20477;-58
2023/10/24 11:28:26;;;;;;;1.90;0.90;;;16.70;92.00;;;;;;5073833;28;20448;-58
2023/10/24 11:30:53;;;;;;;1.73;1.00;;;16.70;92.10;;;;;;5074095;28;20839;-56
2023/10/24 11:33:20;;;;;;;1.83;1.10;;;16.60;92.80;;;;;;5074064;28;20441;-56
2023/10/24 11:35:48;;;;;;;4.10;1.00;;;16.50;93.20;;;;;;5073855;28;20445;-56
2023/10/24 11:38:15;;;;;;;3.30;1.17;;;16.50;93.70;;;;;;5074002;28;20926;-56
2023/10/24 11:40:46;;;;;;;2.20;1.00;;;16.50;94.00;;;;;;5073841;28;20472;-56
2023/10/24 11:43:13;;;;;;;2.70;1.00;;;16.40;94.50;;;;;;5073930;28;20508;-56
2023/10/24 11:45:41;;;;;;;3.10;1.40;;;16.40;95.00;;;;;;5073992;28;20492;-56
2023/10/24 11:48:08;;;;;;;2.60;1.70;;;16.30;95.40;;;;;;5073489;28;20939;-56
2023/10/24 11:50:44;;;;;;;2.23;1.40;;;16.20;96.00;;;;;;5073694;28;20472;-56
2023/10/24 11:53:19;;;;;;;1.93;1.30;;;16.10;96.40;;;;;;5073769;28;20444;-56
2023/10/24 11:55:47;;;;;;;7.30;1.67;;;16.00;97.30;;;;;;5073431;28;20903;-56
2023/10/24 11:58:13;;;;;;;3.30;1.80;;;15.80;97.80;;;;;;5073648;28;20444;-56
2023/10/24 12:00:41;;;;;;;3.50;1.80;;;15.80;98.20;;;;;;5073594;28;20465;-56
2023/10/24 12:03:08;;;;;;;3.67;1.90;;;15.70;98.70;;;;;;5073279;28;20452;-56
2023/10/24 12:05:35;;;;;;;4.93;1.80;;;15.70;99.10;;;;;;5073568;28;20479;-56
2023/10/24 12:08:04;;;;;;;6.20;1.80;;;15.70;99.30;;;;;;5073601;28;20444;-56
2023/10/24 12:10:34;;;;;;;5.40;2.57;;;15.60;99.70;;;;;;5073389;28;20837;-56
2023/10/24 12:13:02;;;;;;;2.13;1.93;;;15.50;99.90;;;;;;5073575;28;20518;-57
2023/10/24 12:15:30;;;;;;;2.70;1.50;;;15.50;99.90;;;;;;5073592;28;20455;-56
2023/10/24 12:18:03;;;;;;;2.20;1.60;;;15.30;99.90;;;;;;5073524;28;20817;-57
2023/10/24 12:20:30;;;;;;;2.43;1.30;;;15.30;99.90;;;;;;5073431;28;20465;-57
2023/10/24 12:22:56;;;;;;;2.20;1.40;;;15.30;99.90;;;;;;5073433;28;20447;-57
2023/10/24 12:25:23;;;;;;;1.50;1.40;;;15.40;99.90;;;;;;5073330;28;20445;-57
2023/10/24 12:27:51;;;;;;;2.03;1.30;;;15.40;99.90;;;;;;5073333;28;20449;-57
2023/10/24 12:30:19;;;;;;;2.43;0.90;;;15.30;99.90;;;;;;5073312;28;20444;-57
2023/10/24 12:32:45;;;;;;;1.77;1.03;;;15.20;99.90;;;;;;5073279;28;20491;-57
2023/10/24 12:35:12;;;;;;;1.37;1.27;;;15.10;99.90;;;;;;5073252;28;20444;-57
2023/10/24 12:37:39;;;;;;;1.13;0.80;;;15.00;99.90;;;;;;5073228;28;20441;-56
2023/10/24 12:40:07;;;;;;;2.10;0.97;;;14.80;99.90;;;;;;5073187;28;20432;-56
2023/10/24 12:42:34;;;;;;;1.30;0.90;;;14.80;99.90;;;;;;5073285;28;20445;-56
2023/10/24 12:45:02;;;;;;;1.20;1.03;;;14.70;99.90;;;;;;5073098;28;20547;-56
2023/10/24 12:47:29;;;;;;;1.07;0.80;;;14.60;99.90;;;;;;5073033;28;20492;-56
2023/10/24 12:49:56;;;;;;;1.20;0.60;;;14.60;99.90;;;;;;5073839;28;20491;-56
2023/10/24 12:52:23;;;;;;;0.83;0.67;;;14.70;99.90;;;;;;5077263;28;20471;-57